Time;durP1;ratioP1;P1;durP2;ratioP2;P2;SDS_P1;SDS_P2;PMS_P1;PMS_P2;Temp;Humidity;BMP_temperature;BMP_pressure;BME280_temperature;BME280_humidity;BME280_pressure;Samples;Min_cycle;Max_cycle;Signal;HPM_P1;HPM_P2
2024/01/30 00:02:21;;;;;;;11.18;5.30;;;12.10;99.90;;;;;;5051636;28;20074;-67
2024/01/30 00:04:47;;;;;;;12.05;4.68;;;12.10;99.90;;;;;;5052714;28;20036;-66
2024/01/30 00:07:12;;;;;;;10.23;5.00;;;12.00;99.90;;;;;;5061053;28;20479;-66
2024/01/30 00:09:41;;;;;;;9.70;5.40;;;12.00;99.90;;;;;;5072132;28;20095;-66
2024/01/30 00:12:07;;;;;;;12.55;4.95;;;12.00;99.90;;;;;;5072103;28;20390;-66
2024/01/30 00:14:33;;;;;;;11.63;4.95;;;11.90;99.90;;;;;;5072037;28;20103;-66
2024/01/30 00:16:58;;;;;;;12.00;5.28;;;11.80;99.90;;;;;;5065027;28;20028;-66
2024/01/30 00:19:24;;;;;;;11.10;5.25;;;11.80;99.90;;;;;;5051918;28;20021;-66
2024/01/30 00:21:50;;;;;;;9.73;5.05;;;11.80;99.90;;;;;;5050781;28;20391;-67
2024/01/30 00:24:15;;;;;;;10.20;5.45;;;11.70;99.90;;;;;;5052035;28;20082;-66
2024/01/30 00:26:41;;;;;;;11.02;4.80;;;11.80;99.90;;;;;;5056160;28;20398;-67
2024/01/30 00:29:07;;;;;;;11.68;5.65;;;11.60;99.90;;;;;;5072122;28;20032;-66
2024/01/30 00:31:32;;;;;;;10.30;5.65;;;11.60;99.90;;;;;;5071416;28;20063;-66
2024/01/30 00:33:58;;;;;;;11.80;5.75;;;11.70;99.90;;;;;;5053897;28;20040;-66
2024/01/30 00:36:23;;;;;;;7.97;4.93;;;11.70;99.90;;;;;;5068108;28;20086;-66
2024/01/30 00:38:49;;;;;;;9.95;5.20;;;11.60;99.90;;;;;;5071997;28;20049;-65
2024/01/30 00:41:17;;;;;;;12.90;5.50;;;11.60;99.90;;;;;;5071724;28;20035;-65
2024/01/30 00:43:43;;;;;;;11.75;5.40;;;11.60;99.90;;;;;;5071671;28;20029;-66
2024/01/30 00:46:09;;;;;;;9.55;5.47;;;11.50;99.90;;;;;;5071452;28;20081;-66
2024/01/30 00:48:34;;;;;;;10.60;5.53;;;11.60;99.90;;;;;;5071823;28;20025;-66
2024/01/30 00:51:00;;;;;;;9.60;5.40;;;11.60;99.90;;;;;;5071864;28;20036;-66
2024/01/30 00:53:26;;;;;;;11.43;5.50;;;11.50;99.90;;;;;;5071741;28;20031;-66
2024/01/30 00:55:52;;;;;;;14.07;5.90;;;11.50;99.90;;;;;;5071615;28;20074;-66
2024/01/30 00:58:19;;;;;;;11.13;5.22;;;11.50;99.90;;;;;;5068578;28;20012;-66
2024/01/30 01:00:44;;;;;;;9.85;5.32;;;11.50;99.90;;;;;;5080222;28;20031;-66
2024/01/30 01:03:10;;;;;;;12.48;5.47;;;11.40;99.90;;;;;;5071736;28;20029;-66
2024/01/30 01:05:36;;;;;;;9.90;5.35;;;11.40;99.90;;;;;;5071608;28;20028;-66
2024/01/30 01:08:01;;;;;;;9.43;5.15;;;11.40;99.90;;;;;;5056411;28;20025;-66
2024/01/30 01:10:28;;;;;;;11.45;5.50;;;11.50;99.90;;;;;;5051439;28;20110;-66
2024/01/30 01:12:53;;;;;;;12.52;5.55;;;11.70;99.90;;;;;;5055024;28;20017;-66
2024/01/30 01:15:19;;;;;;;11.25;5.32;;;11.80;99.90;;;;;;5055521;28;20537;-66
2024/01/30 01:17:44;;;;;;;9.55;5.03;;;11.90;99.90;;;;;;5060758;28;20450;-66
2024/01/30 01:20:11;;;;;;;8.30;4.97;;;11.90;99.90;;;;;;5055241;28;20067;-66
2024/01/30 01:22:38;;;;;;;10.30;5.95;;;11.90;99.90;;;;;;5055287;28;20074;-66
2024/01/30 01:25:06;;;;;;;10.70;5.40;;;12.00;99.90;;;;;;5055628;28;20021;-66
2024/01/30 01:27:34;;;;;;;11.15;5.13;;;12.00;99.90;;;;;;5065663;28;20028;-66
2024/01/30 01:30:01;;;;;;;10.27;5.22;;;11.70;99.90;;;;;;5074114;28;20524;-66
2024/01/30 01:32:26;;;;;;;9.02;5.38;;;11.60;99.90;;;;;;5075364;28;20044;-66
2024/01/30 01:34:52;;;;;;;9.63;5.28;;;11.40;99.90;;;;;;5075221;28;20020;-67
2024/01/30 01:37:17;;;;;;;11.18;5.80;;;11.40;99.90;;;;;;5074739;28;20025;-66
2024/01/30 01:39:43;;;;;;;10.00;5.80;;;11.30;99.90;;;;;;5074732;28;20061;-67
2024/01/30 01:42:09;;;;;;;13.25;5.78;;;11.20;99.90;;;;;;5074733;28;20028;-66
2024/01/30 01:44:34;;;;;;;9.15;5.38;;;11.10;99.90;;;;;;5074833;28;20447;-67
2024/01/30 01:47:00;;;;;;;11.18;5.88;;;11.10;99.90;;;;;;5074681;28;20103;-66
2024/01/30 01:49:27;;;;;;;12.18;6.00;;;11.10;99.90;;;;;;5074618;28;20020;-66
2024/01/30 01:51:56;;;;;;;12.27;6.10;;;11.00;99.90;;;;;;5075204;28;20029;-66
2024/01/30 01:54:23;;;;;;;14.15;6.68;;;11.00;99.90;;;;;;5074482;28;20021;-66
2024/01/30 01:56:50;;;;;;;14.95;6.75;;;10.90;99.90;;;;;;5070150;28;20475;-66
2024/01/30 01:59:16;;;;;;;10.18;6.35;;;10.90;99.90;;;;;;5054225;28;20483;-66
2024/01/30 02:01:42;;;;;;;15.18;6.90;;;10.90;99.90;;;;;;5054382;28;20112;-66
2024/01/30 02:04:08;;;;;;;12.05;7.10;;;10.80;99.90;;;;;;5054579;28;20025;-66
2024/01/30 02:06:38;;;;;;;13.45;6.32;;;10.80;99.90;;;;;;5056265;28;20562;-66
2024/01/30 02:09:04;;;;;;;10.27;5.82;;;10.70;99.90;;;;;;5074138;28;20062;-66
2024/01/30 02:11:30;;;;;;;10.15;5.97;;;10.70;99.90;;;;;;5074856;28;20376;-66
2024/01/30 02:13:56;;;;;;;12.63;6.03;;;10.70;99.90;;;;;;5073923;28;20484;-66
2024/01/30 02:16:21;;;;;;;10.93;5.82;;;10.70;99.90;;;;;;5074124;28;20078;-66
2024/01/30 02:18:47;;;;;;;10.65;6.05;;;10.70;99.90;;;;;;5054232;28;20017;-66
2024/01/30 02:21:17;;;;;;;9.75;6.05;;;10.70;99.90;;;;;;5053939;28;20061;-65
2024/01/30 02:23:44;;;;;;;11.40;6.40;;;10.70;99.90;;;;;;5053574;28;20372;-66
2024/01/30 02:26:11;;;;;;;12.48;6.00;;;10.70;99.90;;;;;;5054348;28;20029;-66
2024/01/30 02:28:37;;;;;;;13.10;6.28;;;10.70;99.90;;;;;;5055752;28;20402;-66
2024/01/30 02:31:03;;;;;;;10.88;6.30;;;10.70;99.90;;;;;;5064008;28;20029;-66
2024/01/30 02:33:29;;;;;;;11.23;6.57;;;10.70;99.90;;;;;;5053886;28;20029;-66
2024/01/30 02:35:54;;;;;;;9.63;6.30;;;10.70;99.90;;;;;;5061132;28;20036;-66
2024/01/30 02:38:20;;;;;;;12.90;6.70;;;10.70;99.90;;;;;;5073272;28;20482;-66
2024/01/30 02:40:46;;;;;;;11.50;6.28;;;10.60;99.90;;;;;;5073501;28;20020;-66
2024/01/30 02:43:12;;;;;;;13.88;6.15;;;10.60;99.90;;;;;;5074014;28;20028;-65
2024/01/30 02:45:37;;;;;;;10.25;6.40;;;10.60;99.90;;;;;;5073721;28;20016;-65
2024/01/30 02:48:03;;;;;;;12.18;5.97;;;10.60;99.90;;;;;;5073499;28;20072;-66
2024/01/30 02:50:29;;;;;;;10.65;6.70;;;10.50;99.90;;;;;;5073477;28;20040;-66
2024/01/30 02:52:55;;;;;;;13.30;6.30;;;10.50;99.90;;;;;;5073834;28;20028;-66
2024/01/30 02:55:20;;;;;;;10.98;6.10;;;10.70;99.90;;;;;;5073132;28;20028;-66
2024/01/30 02:57:46;;;;;;;10.13;6.00;;;10.90;99.90;;;;;;5062280;28;20495;-66
2024/01/30 03:00:12;;;;;;;9.80;5.72;;;11.00;99.90;;;;;;5062836;28;20087;-66
2024/01/30 03:02:38;;;;;;;11.90;6.10;;;11.10;99.90;;;;;;5073654;28;20090;-66
2024/01/30 03:05:05;;;;;;;10.65;5.88;;;11.20;99.90;;;;;;5073376;28;20024;-66
2024/01/30 03:07:31;;;;;;;11.45;6.07;;;11.20;99.90;;;;;;5073139;28;20032;-66
2024/01/30 03:09:56;;;;;;;12.82;5.65;;;11.30;99.90;;;;;;5072839;28;20040;-65
2024/01/30 03:12:22;;;;;;;9.13;5.70;;;11.30;99.90;;;;;;5072825;28;20498;-66
2024/01/30 03:14:49;;;;;;;8.52;6.00;;;11.20;99.90;;;;;;5073451;28;20112;-66
2024/01/30 03:17:15;;;;;;;8.85;5.63;;;11.00;99.90;;;;;;5066583;28;20029;-65
2024/01/30 03:19:40;;;;;;;10.15;6.57;;;10.90;99.90;;;;;;5053103;28;20032;-66
2024/01/30 03:22:06;;;;;;;12.07;6.32;;;10.90;99.90;;;;;;5052755;28;20085;-66
2024/01/30 03:24:32;;;;;;;11.25;6.60;;;10.80;99.90;;;;;;5052714;28;20028;-66
2024/01/30 03:26:57;;;;;;;11.65;6.50;;;10.70;99.90;;;;;;5056940;28;20016;-66
2024/01/30 03:29:23;;;;;;;10.50;6.45;;;10.60;99.90;;;;;;5072686;28;20028;-66
2024/01/30 03:31:49;;;;;;;12.05;6.75;;;10.50;99.90;;;;;;5072874;28;20488;-66
2024/01/30 03:34:14;;;;;;;12.02;6.63;;;10.50;99.90;;;;;;5072447;28;20086;-66
2024/01/30 03:36:40;;;;;;;10.75;6.20;;;10.50;99.90;;;;;;5072297;28;20039;-66
2024/01/30 03:39:06;;;;;;;10.18;6.22;;;10.50;99.90;;;;;;5072169;28;20055;-66
2024/01/30 03:41:31;;;;;;;10.13;6.53;;;10.50;99.90;;;;;;5072575;28;20025;-66
2024/01/30 03:43:57;;;;;;;13.77;6.47;;;10.50;99.90;;;;;;5072502;28;20154;-66
2024/01/30 03:46:24;;;;;;;10.55;6.40;;;10.40;99.90;;;;;;5054509;28;20054;-66
2024/01/30 03:48:49;;;;;;;12.40;6.68;;;10.40;99.90;;;;;;5072370;28;20581;-66
2024/01/30 03:51:15;;;;;;;9.73;6.80;;;10.40;99.90;;;;;;5072453;28;20036;-66
2024/01/30 03:53:46;;;;;;;10.98;6.55;;;10.40;99.90;;;;;;5072438;28;20016;-66
2024/01/30 03:56:13;;;;;;;11.02;6.38;;;10.30;99.90;;;;;;5072149;28;20027;-66
2024/01/30 03:58:39;;;;;;;9.82;6.38;;;10.20;99.90;;;;;;5054623;28;20071;-66
2024/01/30 04:01:04;;;;;;;10.40;6.40;;;10.30;99.90;;;;;;5052651;28;20021;-66
2024/01/30 04:03:30;;;;;;;9.00;6.47;;;10.20;99.90;;;;;;5052258;28;20032;-66
2024/01/30 04:05:56;;;;;;;9.82;6.57;;;10.20;99.90;;;;;;5052120;28;20070;-66
2024/01/30 04:08:21;;;;;;;12.25;6.63;;;10.20;99.90;;;;;;5066761;28;20116;-66
2024/01/30 04:10:47;;;;;;;13.18;7.05;;;10.20;99.90;;;;;;5072141;28;20039;-66
2024/01/30 04:13:13;;;;;;;11.55;6.68;;;10.20;99.90;;;;;;5072120;28;20020;-66
2024/01/30 04:15:39;;;;;;;10.85;6.72;;;10.20;99.90;;;;;;5072119;28;20016;-66
2024/01/30 04:18:05;;;;;;;11.80;7.13;;;10.20;99.90;;;;;;5054057;28;20082;-66
2024/01/30 04:20:30;;;;;;;9.10;6.82;;;10.10;99.90;;;;;;5072210;28;20025;-66
2024/01/30 04:22:56;;;;;;;10.35;7.53;;;10.10;99.90;;;;;;5071962;28;20021;-66
2024/01/30 04:25:22;;;;;;;16.60;7.65;;;10.10;99.90;;;;;;5071891;28;20028;-66
2024/01/30 04:27:48;;;;;;;11.63;7.35;;;10.10;99.90;;;;;;5071807;28;20021;-66
2024/01/30 04:30:14;;;;;;;10.43;6.80;;;10.00;99.90;;;;;;5072072;28;20041;-66
2024/01/30 04:32:40;;;;;;;9.52;6.75;;;10.00;99.90;;;;;;5071846;28;20020;-66
2024/01/30 04:35:05;;;;;;;10.75;7.15;;;10.00;99.90;;;;;;5071776;28;20025;-66
2024/01/30 04:37:31;;;;;;;15.23;7.25;;;10.00;99.90;;;;;;5071788;28;20368;-66
2024/01/30 04:39:57;;;;;;;12.43;7.60;;;10.20;99.90;;;;;;5069452;28;20044;-66
2024/01/30 04:42:23;;;;;;;10.77;8.60;;;10.40;99.90;;;;;;5072189;28;20082;-66
2024/01/30 04:44:49;;;;;;;11.85;7.93;;;10.40;99.90;;;;;;5071992;28;20039;-66
2024/01/30 04:47:14;;;;;;;13.82;7.65;;;10.50;99.90;;;;;;5070795;28;20013;-66
2024/01/30 04:49:40;;;;;;;10.80;6.60;;;10.50;99.90;;;;;;5055642;28;20560;-66
2024/01/30 04:52:07;;;;;;;11.27;6.28;;;10.60;99.90;;;;;;5067014;28;20482;-66
2024/01/30 04:54:34;;;;;;;12.48;6.30;;;10.60;99.90;;;;;;5096129;28;20028;-66
2024/01/30 04:57:00;;;;;;;8.52;6.10;;;10.60;99.90;;;;;;5092963;28;20074;-66
2024/01/30 04:59:26;;;;;;;9.63;6.43;;;10.50;99.90;;;;;;5075874;28;20423;-65
2024/01/30 05:01:51;;;;;;;10.40;6.20;;;10.40;99.90;;;;;;5065612;28;20066;-66
2024/01/30 05:04:17;;;;;;;9.40;6.10;;;10.20;99.90;;;;;;5055535;28;20021;-65
2024/01/30 05:06:43;;;;;;;10.73;6.68;;;10.20;99.90;;;;;;5055554;28;20033;-66
2024/01/30 05:09:09;;;;;;;10.73;6.43;;;10.10;99.90;;;;;;5075805;28;20028;-66
2024/01/30 05:11:41;;;;;;;10.65;6.80;;;10.10;99.90;;;;;;5075503;28;20487;-66
2024/01/30 05:14:08;;;;;;;13.85;7.47;;;10.10;99.90;;;;;;5075350;28;20441;-66
2024/01/30 05:16:34;;;;;;;10.38;7.18;;;10.00;99.90;;;;;;5075288;28;20490;-66
2024/01/30 05:19:00;;;;;;;10.10;7.10;;;9.90;99.90;;;;;;5056189;28;20033;-66
2024/01/30 05:21:26;;;;;;;11.15;6.97;;;9.80;99.90;;;;;;5054529;28;20103;-66
2024/01/30 05:23:51;;;;;;;12.50;7.60;;;9.90;99.90;;;;;;5055626;28;20028;-66
2024/01/30 05:26:17;;;;;;;15.70;7.75;;;9.90;99.90;;;;;;5055275;28;20025;-66
2024/01/30 05:28:46;;;;;;;12.05;7.13;;;9.80;99.90;;;;;;5071641;28;20020;-66
2024/01/30 05:31:11;;;;;;;13.35;7.40;;;9.80;99.90;;;;;;5075076;28;20032;-66
2024/01/30 05:33:37;;;;;;;13.70;7.60;;;9.80;99.90;;;;;;5075382;28;20082;-66
2024/01/30 05:36:03;;;;;;;13.32;7.68;;;9.70;99.90;;;;;;5074424;28;20089;-66
2024/01/30 05:38:30;;;;;;;10.15;7.28;;;9.80;99.90;;;;;;5074687;28;20059;-65
2024/01/30 05:40:55;;;;;;;11.75;7.88;;;9.70;99.90;;;;;;5075150;28;20665;-66
2024/01/30 05:43:21;;;;;;;11.32;7.45;;;9.70;99.90;;;;;;5075021;28;20059;-66
2024/01/30 05:45:47;;;;;;;10.98;7.60;;;9.70;99.90;;;;;;5074704;28;20391;-66
2024/01/30 05:48:12;;;;;;;12.43;7.80;;;9.70;99.90;;;;;;5074903;28;20021;-65
2024/01/30 05:50:38;;;;;;;12.23;8.02;;;9.70;99.90;;;;;;5074423;28;20159;-66
2024/01/30 05:53:04;;;;;;;10.80;7.63;;;9.70;99.90;;;;;;5074778;28;20505;-66
2024/01/30 05:55:29;;;;;;;11.50;7.65;;;9.70;99.90;;;;;;5074638;28;20107;-66
2024/01/30 05:57:55;;;;;;;10.55;7.53;;;9.60;99.90;;;;;;5064147;28;20017;-66
2024/01/30 06:00:21;;;;;;;13.15;7.50;;;9.60;99.90;;;;;;5054784;28;20029;-66
2024/01/30 06:02:46;;;;;;;9.63;7.82;;;9.60;99.90;;;;;;5054450;28;20027;-66
2024/01/30 06:05:12;;;;;;;13.45;7.85;;;9.60;99.90;;;;;;5052936;28;20426;-66
2024/01/30 06:07:38;;;;;;;14.13;8.13;;;9.50;99.90;;;;;;5061164;28;20124;-66
2024/01/30 06:10:04;;;;;;;11.10;8.10;;;9.50;99.90;;;;;;5074498;28;20053;-66
2024/01/30 06:12:30;;;;;;;12.60;7.85;;;9.50;99.90;;;;;;5074414;28;20017;-66
2024/01/30 06:14:56;;;;;;;15.88;8.43;;;9.50;99.90;;;;;;5074343;28;20082;-66
2024/01/30 06:17:23;;;;;;;17.02;8.27;;;9.50;99.90;;;;;;5069170;28;20021;-65
2024/01/30 06:19:49;;;;;;;13.68;8.60;;;9.50;99.90;;;;;;5053813;28;20025;-66
2024/01/30 06:22:15;;;;;;;10.60;8.07;;;9.40;99.90;;;;;;5054042;28;20016;-66
2024/01/30 06:24:41;;;;;;;13.45;8.43;;;9.50;99.90;;;;;;5054781;28;20125;-66
2024/01/30 06:27:07;;;;;;;11.43;7.80;;;9.80;99.90;;;;;;5056556;28;20487;-66
2024/01/30 06:29:32;;;;;;;11.57;6.97;;;9.90;99.90;;;;;;5073925;28;20042;-66
2024/01/30 06:31:58;;;;;;;12.05;7.25;;;9.90;99.90;;;;;;5073748;28;20479;-65
2024/01/30 06:34:26;;;;;;;10.25;7.25;;;10.10;99.90;;;;;;5066518;28;20025;-66
2024/01/30 06:36:51;;;;;;;13.40;7.20;;;10.20;99.90;;;;;;5067655;28;20395;-66
2024/01/30 06:39:17;;;;;;;11.40;7.28;;;10.10;99.90;;;;;;5073857;28;20044;-66
2024/01/30 06:41:43;;;;;;;10.45;6.93;;;10.10;99.90;;;;;;5073347;28;20045;-66
2024/01/30 06:44:09;;;;;;;9.27;7.05;;;10.00;99.90;;;;;;5074091;28;20493;-66
2024/01/30 06:46:35;;;;;;;11.23;7.43;;;9.90;99.90;;;;;;5087294;28;20095;-65
2024/01/30 06:49:01;;;;;;;12.68;7.60;;;9.80;99.90;;;;;;5074949;28;20028;-65
2024/01/30 06:51:27;;;;;;;11.05;7.88;;;9.70;99.90;;;;;;5073340;28;20021;-65
2024/01/30 06:53:52;;;;;;;12.05;7.55;;;9.60;99.90;;;;;;5073779;28;20054;-66
2024/01/30 06:56:21;;;;;;;12.23;8.10;;;9.50;99.90;;;;;;5073476;28;20315;-66
2024/01/30 06:58:50;;;;;;;11.70;7.97;;;9.50;99.90;;;;;;5073031;28;20025;-66
2024/01/30 07:01:16;;;;;;;13.45;8.45;;;9.40;99.90;;;;;;5073095;28;20029;-66
2024/01/30 07:03:42;;;;;;;12.65;8.02;;;9.40;99.90;;;;;;5072741;28;20117;-65
2024/01/30 07:06:08;;;;;;;9.20;7.93;;;9.30;99.90;;;;;;5073341;28;20032;-66
2024/01/30 07:08:34;;;;;;;11.43;8.45;;;9.30;99.90;;;;;;5058080;28;20036;-66
2024/01/30 07:10:59;;;;;;;14.55;8.32;;;9.20;99.90;;;;;;5055418;28;20037;-66
2024/01/30 07:13:25;;;;;;;12.48;8.30;;;9.30;99.90;;;;;;5053054;28;20044;-66
2024/01/30 07:15:51;;;;;;;11.73;8.32;;;9.20;99.90;;;;;;5052899;28;20431;-66
2024/01/30 07:18:16;;;;;;;14.13;9.02;;;9.20;99.90;;;;;;5063805;28;20086;-65
2024/01/30 07:20:46;;;;;;;13.88;8.75;;;9.20;99.90;;;;;;5073147;28;20510;-66
2024/01/30 07:23:15;;;;;;;12.23;9.13;;;9.10;99.90;;;;;;5072759;28;20089;-66
2024/01/30 07:25:41;;;;;;;13.05;9.70;;;9.10;99.90;;;;;;5072569;28;20021;-66
2024/01/30 07:28:11;;;;;;;16.38;8.80;;;9.10;99.90;;;;;;5070385;28;20379;-64
2024/01/30 07:30:37;;;;;;;12.38;8.75;;;9.00;99.90;;;;;;5072889;28;20040;-63
2024/01/30 07:33:03;;;;;;;10.25;8.35;;;9.10;99.90;;;;;;5072216;28;20025;-65
2024/01/30 07:35:28;;;;;;;13.45;7.90;;;9.10;99.90;;;;;;5072877;28;20398;-66
2024/01/30 07:37:54;;;;;;;11.13;8.27;;;9.20;99.90;;;;;;5072596;28;20090;-65
2024/01/30 07:40:20;;;;;;;12.77;8.52;;;9.10;99.90;;;;;;5072327;28;20056;-65
2024/01/30 07:42:46;;;;;;;15.48;9.35;;;9.10;99.90;;;;;;5072414;28;20032;-66
2024/01/30 07:45:11;;;;;;;14.13;9.18;;;9.10;99.90;;;;;;5072199;28;20029;-69
2024/01/30 07:47:37;;;;;;;12.52;9.10;;;9.10;99.90;;;;;;5072679;28;20021;-65
2024/01/30 07:50:03;;;;;;;15.70;8.88;;;9.00;99.90;;;;;;5072194;28;20035;-65
2024/01/30 07:52:28;;;;;;;13.82;9.45;;;9.10;99.90;;;;;;5072514;28;20031;-65
2024/01/30 07:54:55;;;;;;;12.27;8.30;;;9.00;99.90;;;;;;5072641;28;20100;-65
2024/01/30 07:57:20;;;;;;;11.88;8.70;;;9.00;99.90;;;;;;5069065;28;20096;-65
2024/01/30 07:59:46;;;;;;;13.77;8.57;;;9.00;99.90;;;;;;5052116;28;20104;-64
2024/01/30 08:02:15;;;;;;;11.82;8.10;;;9.00;99.90;;;;;;5052399;28;20025;-65
2024/01/30 08:04:41;;;;;;;15.30;8.55;;;9.00;99.90;;;;;;5052297;28;20035;-65
2024/01/30 08:07:06;;;;;;;10.70;8.70;;;9.10;99.90;;;;;;5053577;28;20471;-66
2024/01/30 08:09:32;;;;;;;13.80;8.98;;;9.00;99.90;;;;;;5072041;28;20032;-65
2024/01/30 08:11:58;;;;;;;10.57;8.30;;;9.00;99.90;;;;;;5072111;28;20021;-65
2024/01/30 08:14:23;;;;;;;10.88;8.30;;;9.20;99.90;;;;;;5071856;28;20386;-65
2024/01/30 08:16:49;;;;;;;10.63;8.00;;;9.40;99.90;;;;;;5072188;28;20543;-65
2024/01/30 08:19:15;;;;;;;11.00;7.50;;;9.60;99.90;;;;;;5053601;28;20392;-66
2024/01/30 08:21:41;;;;;;;13.50;8.02;;;9.70;99.90;;;;;;5058351;28;20032;-66
2024/01/30 08:24:07;;;;;;;11.68;7.78;;;9.80;99.90;;;;;;5072099;28;20421;-66
2024/01/30 08:26:34;;;;;;;11.45;7.38;;;9.80;99.90;;;;;;5070437;28;20025;-66
2024/01/30 08:28:59;;;;;;;11.65;7.20;;;9.90;99.90;;;;;;5071877;28;20017;-65
2024/01/30 08:31:25;;;;;;;12.38;7.47;;;10.00;99.90;;;;;;5071944;28;20044;-64
2024/01/30 08:33:51;;;;;;;11.57;7.60;;;9.90;99.90;;;;;;5071898;28;20021;-65
2024/01/30 08:36:17;;;;;;;10.93;7.50;;;9.80;99.90;;;;;;5071917;28;20051;-65
2024/01/30 08:38:42;;;;;;;12.05;8.07;;;9.70;99.90;;;;;;5070944;28;20119;-65
2024/01/30 08:41:10;;;;;;;11.40;8.57;;;9.60;99.90;;;;;;5091997;28;20510;-65
2024/01/30 08:43:36;;;;;;;14.27;8.98;;;9.60;99.90;;;;;;5091659;28;20028;-65
2024/01/30 08:46:02;;;;;;;12.65;9.18;;;9.50;99.90;;;;;;5091826;28;20417;-65
2024/01/30 08:48:28;;;;;;;12.82;9.57;;;9.60;99.90;;;;;;5080633;28;20028;-66
2024/01/30 08:50:54;;;;;;;17.20;9.40;;;9.60;99.90;;;;;;5071588;28;20041;-66
2024/01/30 08:53:19;;;;;;;15.00;8.60;;;9.60;99.90;;;;;;5071784;28;20020;-65
2024/01/30 08:55:45;;;;;;;13.30;9.30;;;9.50;99.90;;;;;;5070121;28;20027;-66
2024/01/30 08:58:11;;;;;;;13.77;8.70;;;9.60;99.90;;;;;;5071213;28;20086;-66
2024/01/30 09:00:37;;;;;;;12.38;8.63;;;9.60;99.90;;;;;;5071562;28;20040;-66
2024/01/30 09:03:03;;;;;;;14.57;8.85;;;9.60;99.90;;;;;;5071853;28;20596;-65
2024/01/30 09:05:29;;;;;;;13.48;8.55;;;9.60;99.90;;;;;;5071545;28;20052;-66
2024/01/30 09:07:54;;;;;;;13.35;8.75;;;9.70;99.90;;;;;;5071557;28;20056;-65
2024/01/30 09:10:20;;;;;;;11.50;8.23;;;9.70;99.90;;;;;;5071425;28;20085;-65
2024/01/30 09:12:46;;;;;;;12.48;8.65;;;9.80;99.90;;;;;;5071323;28;20028;-66
2024/01/30 09:15:12;;;;;;;9.65;7.90;;;9.80;99.90;;;;;;5071522;28;20025;-65
2024/01/30 09:17:38;;;;;;;13.32;9.18;;;9.80;99.90;;;;;;5067063;28;20070;-65
2024/01/30 09:20:04;;;;;;;12.70;9.13;;;9.90;99.90;;;;;;5055125;28;20029;-66
2024/01/30 09:22:31;;;;;;;13.45;9.18;;;9.90;99.90;;;;;;5051237;28;20173;-66
2024/01/30 09:24:57;;;;;;;13.25;8.90;;;10.00;99.90;;;;;;5051763;28;20057;-66
2024/01/30 09:27:22;;;;;;;12.15;8.63;;;10.00;99.90;;;;;;5052954;28;20106;-66
2024/01/30 09:29:48;;;;;;;14.93;8.60;;;10.10;99.90;;;;;;5070762;28;20024;-66
2024/01/30 09:32:13;;;;;;;13.20;8.20;;;10.10;99.90;;;;;;5070734;28;20040;-63
2024/01/30 09:34:39;;;;;;;14.10;7.72;;;10.40;99.90;;;;;;5068245;28;20066;-63
2024/01/30 09:37:05;;;;;;;13.02;7.20;;;10.70;99.90;;;;;;5075218;28;20059;-63
2024/01/30 09:39:30;;;;;;;260.65;42.08;;;11.00;99.90;;;;;;5074610;28;20105;-63
2024/01/30 09:42:25;;;;;;;48.63;13.98;;;11.20;99.90;;;;;;5074537;28;20399;-63
2024/01/30 09:44:53;;;;;;;427.83;40.03;;;11.20;99.90;;;;;;5074879;28;20024;-65
2024/01/30 09:47:18;;;;;;;86.43;14.52;;;11.40;99.90;;;;;;5074672;28;20434;-65
2024/01/30 09:49:44;;;;;;;33.75;9.02;;;11.30;99.90;;;;;;5074972;28;20040;-65
2024/01/30 09:52:11;;;;;;;20.42;8.20;;;11.30;99.90;;;;;;5074761;28;20032;-65
2024/01/30 09:54:38;;;;;;;15.20;7.70;;;11.30;99.90;;;;;;5074544;28;20032;-65
2024/01/30 09:57:04;;;;;;;10.80;7.47;;;11.30;99.90;;;;;;5074386;28;20446;-65
2024/01/30 09:59:31;;;;;;;12.35;7.88;;;11.20;99.90;;;;;;5055196;28;20033;-64
2024/01/30 10:01:57;;;;;;;10.48;7.18;;;11.30;99.90;;;;;;5053308;28;20433;-64
2024/01/30 10:04:23;;;;;;;13.20;7.15;;;11.50;99.90;;;;;;5068782;28;20499;-64
2024/01/30 10:06:49;;;;;;;10.60;6.90;;;11.70;99.90;;;;;;5061087;28;20059;-64
2024/01/30 10:09:14;;;;;;;10.88;6.57;;;11.80;99.90;;;;;;5073990;28;20066;-64
2024/01/30 10:11:40;;;;;;;11.52;7.18;;;12.00;99.90;;;;;;5073754;28;20416;-64
2024/01/30 10:14:06;;;;;;;12.68;6.75;;;12.10;99.90;;;;;;5074342;28;20028;-65
2024/01/30 10:16:31;;;;;;;10.32;6.45;;;12.30;99.90;;;;;;5074120;28;20028;-64
2024/01/30 10:18:57;;;;;;;13.07;7.25;;;12.30;99.90;;;;;;5073840;28;20505;-64
2024/01/30 10:21:23;;;;;;;11.18;6.97;;;12.30;99.90;;;;;;5073957;28;20021;-65
2024/01/30 10:23:49;;;;;;;10.75;6.80;;;12.30;99.90;;;;;;5056206;28;20062;-65
2024/01/30 10:26:17;;;;;;;11.50;6.93;;;12.30;99.90;;;;;;5073678;28;20024;-65
2024/01/30 10:28:43;;;;;;;11.48;7.10;;;12.30;99.90;;;;;;5061545;28;20025;-65
2024/01/30 10:31:09;;;;;;;13.90;7.25;;;12.30;99.90;;;;;;5054666;28;20048;-65
2024/01/30 10:33:34;;;;;;;8.77;6.57;;;12.30;99.90;;;;;;5073040;28;20518;-65
2024/01/30 10:36:02;;;;;;;12.00;6.72;;;12.40;99.90;;;;;;5073485;28;20112;-65
2024/01/30 10:38:31;;;;;;;10.63;6.85;;;12.50;99.90;;;;;;5073810;28;20428;-65
2024/01/30 10:40:58;;;;;;;13.52;7.30;;;12.50;99.90;;;;;;5073625;28;20495;-65
2024/01/30 10:43:33;;;;;;;11.95;7.65;;;12.60;99.90;;;;;;5073422;28;20496;-65
2024/01/30 10:46:10;;;;;;;13.35;7.57;;;12.60;99.90;;;;;;5074051;28;20099;-65
2024/01/30 10:48:42;;;;;;;11.55;7.47;;;12.70;99.90;;;;;;5071064;28;20041;-65
2024/01/30 10:51:09;;;;;;;12.98;7.25;;;12.80;99.90;;;;;;5073638;28;20131;-66
2024/01/30 10:53:35;;;;;;;14.20;7.65;;;12.90;99.90;;;;;;5073698;28;20048;-66
2024/01/30 10:56:03;;;;;;;11.15;6.97;;;12.90;99.90;;;;;;5071164;28;20071;-65
2024/01/30 10:58:29;;;;;;;11.88;7.05;;;13.10;99.90;;;;;;5066358;28;20448;-65
2024/01/30 11:00:55;;;;;;;11.23;7.60;;;13.20;99.90;;;;;;5069571;28;20043;-65
2024/01/30 11:03:21;;;;;;;14.48;7.00;;;13.20;99.90;;;;;;5073276;28;20048;-66
2024/01/30 11:05:51;;;;;;;11.82;6.60;;;13.30;99.90;;;;;;5054546;28;20052;-66
2024/01/30 11:08:27;;;;;;;9.90;6.63;;;13.30;99.90;;;;;;5072102;28;20107;-66
2024/01/30 11:10:57;;;;;;;11.52;6.60;;;13.40;99.90;;;;;;5072904;28;20046;-66
2024/01/30 11:13:29;;;;;;;12.52;7.10;;;13.50;99.90;;;;;;5066982;28;20074;-65
2024/01/30 11:15:55;;;;;;;13.27;6.50;;;13.60;99.90;;;;;;5073098;28;20028;-65
2024/01/30 11:18:25;;;;;;;11.30;7.00;;;13.70;99.90;;;;;;5072977;28;20025;-65
2024/01/30 11:20:51;;;;;;;13.27;7.32;;;13.70;99.90;;;;;;5070685;28;20415;-65
2024/01/30 11:23:17;;;;;;;11.75;7.38;;;13.80;99.90;;;;;;5062654;28;20029;-66
2024/01/30 11:25:45;;;;;;;11.63;6.30;;;13.80;99.90;;;;;;5053163;28;20099;-65
2024/01/30 11:28:16;;;;;;;13.82;6.88;;;13.90;99.90;;;;;;5059867;28;20013;-65
2024/01/30 11:30:43;;;;;;;14.15;6.47;;;14.10;99.90;;;;;;5072909;28;20051;-66
2024/01/30 11:33:11;;;;;;;12.45;6.47;;;14.20;99.90;;;;;;5072771;28;20024;-66
2024/01/30 11:35:39;;;;;;;11.25;6.28;;;14.30;99.90;;;;;;5072313;28;20032;-65
2024/01/30 11:38:05;;;;;;;13.93;6.10;;;14.40;99.90;;;;;;5054559;28;20017;-65
2024/01/30 11:40:33;;;;;;;13.45;6.18;;;14.40;99.90;;;;;;5072548;28;20053;-65
2024/01/30 11:43:00;;;;;;;10.55;6.03;;;14.50;99.90;;;;;;5072467;28;20020;-65
2024/01/30 11:45:29;;;;;;;11.63;6.15;;;14.60;99.90;;;;;;5072530;28;20154;-65
2024/01/30 11:47:55;;;;;;;9.75;6.20;;;14.80;99.90;;;;;;5072331;28;20391;-65
2024/01/30 11:50:21;;;;;;;12.43;5.95;;;15.00;99.90;;;;;;5072371;28;20043;-65
2024/01/30 11:52:47;;;;;;;12.43;6.00;;;15.20;99.90;;;;;;5072390;28;20021;-65
2024/01/30 11:55:14;;;;;;;12.10;6.35;;;15.50;99.90;;;;;;5071612;28;20112;-66
2024/01/30 11:57:40;;;;;;;10.77;6.05;;;15.60;99.90;;;;;;5070491;28;20023;-64
2024/01/30 12:00:13;;;;;;;10.73;6.00;;;15.80;99.90;;;;;;5052359;28;20033;-66
2024/01/30 12:02:40;;;;;;;10.63;5.90;;;15.90;99.90;;;;;;5052348;28;20111;-65
2024/01/30 12:05:06;;;;;;;10.68;5.90;;;15.70;99.90;;;;;;5052234;28;20057;-66
2024/01/30 12:07:32;;;;;;;12.95;6.22;;;15.70;99.90;;;;;;5052697;28;20017;-65
2024/01/30 12:09:58;;;;;;;8.57;5.80;;;15.60;99.90;;;;;;5072321;28;20040;-66
2024/01/30 12:12:28;;;;;;;9.80;5.60;;;15.50;99.90;;;;;;5072074;28;20463;-66
2024/01/30 12:14:54;;;;;;;10.15;5.85;;;15.40;99.90;;;;;;5072020;28;20020;-66
2024/01/30 12:17:30;;;;;;;12.13;5.95;;;15.40;99.90;;;;;;5072087;28;20028;-65
2024/01/30 12:20:06;;;;;;;10.52;6.72;;;15.40;99.90;;;;;;5052198;28;20053;-66
2024/01/30 12:22:38;;;;;;;11.60;6.05;;;15.40;99.90;;;;;;5052057;28;20021;-66
2024/01/30 12:25:14;;;;;;;11.25;5.45;;;15.50;99.90;;;;;;5052040;28;20049;-66
2024/01/30 12:27:43;;;;;;;11.88;6.10;;;15.70;99.90;;;;;;5053892;28;20106;-66
2024/01/30 12:30:11;;;;;;;12.48;6.00;;;15.70;99.90;;;;;;5071784;28;20040;-66
2024/01/30 12:32:44;;;;;;;12.02;6.25;;;15.70;99.90;;;;;;5072221;28;20050;-66
2024/01/30 12:35:14;;;;;;;10.77;6.47;;;15.70;99.90;;;;;;5071797;28;20394;-66
2024/01/30 12:37:40;;;;;;;9.98;5.93;;;15.70;99.90;;;;;;5074753;28;20107;-66